sensor_id;sensor_type;location;lat;lon;timestamp;pressure;altitude;pressure_sealevel;temperature;humidity
29825;BME280;16713;52.916;12.834;2023-07-31T00:00:58;100469.84;;;17.32;73.25
29825;BME280;16713;52.916;12.834;2023-07-31T00:03:25;100473.84;;;17.27;74.31
29825;BME280;16713;52.916;12.834;2023-07-31T00:05:51;100474.66;;;17.28;74.10
29825;BME280;16713;52.916;12.834;2023-07-31T00:08:18;100470.25;;;17.30;74.21
29825;BME280;16713;52.916;12.834;2023-07-31T00:10:44;100465.53;;;17.27;74.30
29825;BME280;16713;52.916;12.834;2023-07-31T00:13:11;100455.66;;;17.26;74.44
29825;BME280;16713;52.916;12.834;2023-07-31T00:15:38;100454.44;;;17.27;74.26
29825;BME280;16713;52.916;12.834;2023-07-31T00:18:05;100452.09;;;17.26;74.49
29825;BME280;16713;52.916;12.834;2023-07-31T00:20:31;100454.44;;;17.27;74.08
29825;BME280;16713;52.916;12.834;2023-07-31T00:22:57;100452.88;;;17.26;74.29
29825;BME280;16713;52.916;12.834;2023-07-31T00:25:24;100460.41;;;17.26;73.96
29825;BME280;16713;52.916;12.834;2023-07-31T00:27:50;100456.41;;;17.27;74.28
29825;BME280;16713;52.916;12.834;2023-07-31T00:30:17;100453.69;;;17.23;74.33
29825;BME280;16713;52.916;12.834;2023-07-31T00:32:43;100439.44;;;17.25;74.02
29825;BME280;16713;52.916;12.834;2023-07-31T00:35:10;100446.16;;;17.24;73.79
29825;BME280;16713;52.916;12.834;2023-07-31T00:37:36;100438.66;;;17.21;74.66
29825;BME280;16713;52.916;12.834;2023-07-31T00:40:03;100430.72;;;17.23;74.31
29825;BME280;16713;52.916;12.834;2023-07-31T00:42:30;100425.97;;;17.23;74.61
29825;BME280;16713;52.916;12.834;2023-07-31T00:44:56;100423.97;;;17.24;74.39
29825;BME280;16713;52.916;12.834;2023-07-31T00:47:23;100422.41;;;17.23;74.38
29825;BME280;16713;52.916;12.834;2023-07-31T00:49:49;100427.13;;;17.26;74.58
29825;BME280;16713;52.916;12.834;2023-07-31T00:52:16;100425.56;;;17.25;74.33
29825;BME280;16713;52.916;12.834;2023-07-31T00:54:43;100412.50;;;17.22;74.75
29825;BME280;16713;52.916;12.834;2023-07-31T00:57:10;100408.53;;;17.23;74.05
29825;BME280;16713;52.916;12.834;2023-07-31T00:59:36;100413.28;;;17.22;74.04
29825;BME280;16713;52.916;12.834;2023-07-31T01:02:04;100417.28;;;17.21;74.46
29825;BME280;16713;52.916;12.834;2023-07-31T01:04:30;100419.66;;;17.19;74.35
29825;BME280;16713;52.916;12.834;2023-07-31T01:07:07;100411.31;;;17.23;74.56
29825;BME280;16713;52.916;12.834;2023-07-31T01:12:15;100407.41;;;17.17;73.83
29825;BME280;16713;52.916;12.834;2023-07-31T01:15:12;100412.53;;;17.15;73.91
29825;BME280;16713;52.916;12.834;2023-07-31T01:17:41;100411.31;;;17.16;74.36
29825;BME280;16713;52.916;12.834;2023-07-31T01:20:14;100407.81;;;17.12;74.44
29825;BME280;16713;52.916;12.834;2023-07-31T01:28:23;100393.16;;;17.11;73.99
29825;BME280;16713;52.916;12.834;2023-07-31T01:30:52;100395.91;;;17.11;73.91
29825;BME280;16713;52.916;12.834;2023-07-31T01:33:21;100399.06;;;17.13;74.13
29825;BME280;16713;52.916;12.834;2023-07-31T01:35:48;100399.09;;;17.10;74.00
29825;BME280;16713;52.916;12.834;2023-07-31T01:38:15;100399.09;;;17.10;74.28
29825;BME280;16713;52.916;12.834;2023-07-31T01:40:41;100394.34;;;17.10;74.10
29825;BME280;16713;52.916;12.834;2023-07-31T01:43:08;100397.94;;;17.07;73.83
29825;BME280;16713;52.916;12.834;2023-07-31T01:45:35;100386.06;;;17.03;74.30
29825;BME280;16713;52.916;12.834;2023-07-31T01:48:01;100391.22;;;17.05;73.92
29825;BME280;16713;52.916;12.834;2023-07-31T01:50:28;100389.66;;;17.04;73.86
29825;BME280;16713;52.916;12.834;2023-07-31T01:52:54;100388.47;;;16.98;74.33
29825;BME280;16713;52.916;12.834;2023-07-31T01:55:21;100391.63;;;17.03;73.72
29825;BME280;16713;52.916;12.834;2023-07-31T01:57:47;100386.09;;;17.00;73.91
29825;BME280;16713;52.916;12.834;2023-07-31T02:00:15;100386.47;;;17.02;74.15
29825;BME280;16713;52.916;12.834;2023-07-31T02:02:41;100383.31;;;17.03;74.39
29825;BME280;16713;52.916;12.834;2023-07-31T02:05:08;100391.63;;;17.03;74.44
29825;BME280;16713;52.916;12.834;2023-07-31T02:07:34;100397.19;;;17.00;74.66
29825;BME280;16713;52.916;12.834;2023-07-31T02:10:01;100394.00;;;17.01;74.72
29825;BME280;16713;52.916;12.834;2023-07-31T02:12:27;100385.69;;;16.98;74.68
29825;BME280;16713;52.916;12.834;2023-07-31T02:14:56;100377.38;;;16.98;75.15
29825;BME280;16713;52.916;12.834;2023-07-31T02:17:23;100376.22;;;16.99;75.04
29825;BME280;16713;52.916;12.834;2023-07-31T02:19:49;100373.44;;;16.99;75.59
29825;BME280;16713;52.916;12.834;2023-07-31T02:22:16;100361.16;;;16.96;75.32
29825;BME280;16713;52.916;12.834;2023-07-31T02:24:42;100362.38;;;16.95;75.39
29825;BME280;16713;52.916;12.834;2023-07-31T02:27:09;100356.84;;;16.95;75.84
29825;BME280;16713;52.916;12.834;2023-07-31T02:29:35;100362.75;;;16.97;75.50
29825;BME280;16713;52.916;12.834;2023-07-31T02:32:02;100352.44;;;16.98;75.63
29825;BME280;16713;52.916;12.834;2023-07-31T02:34:28;100348.94;;;16.94;75.73
29825;BME280;16713;52.916;12.834;2023-07-31T02:36:55;100347.72;;;16.95;76.11
29825;BME280;16713;52.916;12.834;2023-07-31T02:39:21;100341.81;;;16.93;75.83
29825;BME280;16713;52.916;12.834;2023-07-31T02:41:48;100352.50;;;16.94;75.84
29825;BME280;16713;52.916;12.834;2023-07-31T02:44:14;100352.50;;;16.94;76.05
29825;BME280;16713;52.916;12.834;2023-07-31T02:46:40;100342.97;;;16.95;76.20
29825;BME280;16713;52.916;12.834;2023-07-31T02:49:07;100341.78;;;16.96;76.46
29825;BME280;16713;52.916;12.834;2023-07-31T02:51:34;100343.78;;;16.96;75.91
29825;BME280;16713;52.916;12.834;2023-07-31T02:54:00;100348.53;;;16.95;76.65
29825;BME280;16713;52.916;12.834;2023-07-31T02:56:27;100341.00;;;16.96;76.62
29825;BME280;16713;52.916;12.834;2023-07-31T02:58:53;100342.56;;;16.97;76.04
29825;BME280;16713;52.916;12.834;2023-07-31T03:01:20;100335.47;;;16.96;76.42
29825;BME280;16713;52.916;12.834;2023-07-31T03:03:46;100333.13;;;16.91;76.71
29825;BME280;16713;52.916;12.834;2023-07-31T03:06:13;100335.06;;;16.94;76.92
29825;BME280;16713;52.916;12.834;2023-07-31T03:08:39;100333.06;;;16.98;76.87
29825;BME280;16713;52.916;12.834;2023-07-31T03:11:06;100339.41;;;16.95;77.05
29825;BME280;16713;52.916;12.834;2023-07-31T03:13:32;100334.69;;;16.92;76.75
29825;BME280;16713;52.916;12.834;2023-07-31T03:15:59;100329.97;;;16.89;77.03
29825;BME280;16713;52.916;12.834;2023-07-31T03:18:25;100339.84;;;16.90;76.83
29825;BME280;16713;52.916;12.834;2023-07-31T03:20:52;100330.34;;;16.94;77.39
29825;BME280;16713;52.916;12.834;2023-07-31T03:23:18;100329.97;;;16.89;76.86
29825;BME280;16713;52.916;12.834;2023-07-31T03:28:23;100322.78;;;16.95;76.93
29825;BME280;16713;52.916;12.834;2023-07-31T03:30:51;100308.53;;;16.96;76.88
29825;BME280;16713;52.916;12.834;2023-07-31T03:33:18;100302.25;;;16.92;76.77
29825;BME280;16713;52.916;12.834;2023-07-31T03:35:45;100303.03;;;16.93;77.51
29825;BME280;16713;52.916;12.834;2023-07-31T03:38:11;100312.50;;;16.95;76.92
29825;BME280;16713;52.916;12.834;2023-07-31T03:40:38;100309.34;;;16.93;76.81
29825;BME280;16713;52.916;12.834;2023-07-31T03:43:05;100310.94;;;16.94;76.68
29825;BME280;16713;52.916;12.834;2023-07-31T03:45:32;100312.13;;;16.93;77.33
29825;BME280;16713;52.916;12.834;2023-07-31T03:47:58;100309.38;;;16.90;77.09
29825;BME280;16713;52.916;12.834;2023-07-31T03:50:25;100302.25;;;16.92;76.95
29825;BME280;16713;52.916;12.834;2023-07-31T03:52:52;100301.44;;;16.92;76.93
29825;BME280;16713;52.916;12.834;2023-07-31T03:55:18;100303.06;;;16.89;76.73
29825;BME280;16713;52.916;12.834;2023-07-31T03:57:45;100298.28;;;16.90;77.29
29825;BME280;16713;52.916;12.834;2023-07-31T04:00:11;100291.19;;;16.89;77.49
29825;BME280;16713;52.916;12.834;2023-07-31T04:02:38;100289.59;;;16.91;76.90
29825;BME280;16713;52.916;12.834;2023-07-31T04:05:04;100289.59;;;16.91;77.15
29825;BME280;16713;52.916;12.834;2023-07-31T04:07:31;100292.38;;;16.91;77.33
29825;BME280;16713;52.916;12.834;2023-07-31T04:09:57;100287.63;;;16.88;77.32
29825;BME280;16713;52.916;12.834;2023-07-31T04:12:24;100287.63;;;16.88;77.51
29825;BME280;16713;52.916;12.834;2023-07-31T04:14:51;100285.25;;;16.87;77.15
29825;BME280;16713;52.916;12.834;2023-07-31T04:17:17;100278.13;;;16.89;77.66
29825;BME280;16713;52.916;12.834;2023-07-31T04:19:44;100282.47;;;16.90;77.62
29825;BME280;16713;52.916;12.834;2023-07-31T04:22:10;100284.06;;;16.91;77.03
29825;BME280;16713;52.916;12.834;2023-07-31T04:24:37;100281.66;;;16.90;77.49
29825;BME280;16713;52.916;12.834;2023-07-31T04:27:03;100277.31;;;16.92;77.70
29825;BME280;16713;52.916;12.834;2023-07-31T04:29:30;100279.69;;;16.90;77.58
29825;BME280;16713;52.916;12.834;2023-07-31T04:31:56;100270.22;;;16.88;77.70
29825;BME280;16713;52.916;12.834;2023-07-31T04:34:22;100265.44;;;16.88;77.70
29825;BME280;16713;52.916;12.834;2023-07-31T04:36:49;100268.59;;;16.90;77.87
29825;BME280;16713;52.916;12.834;2023-07-31T04:39:15;100263.88;;;16.91;77.50
29825;BME280;16713;52.916;12.834;2023-07-31T04:41:42;100262.66;;;16.92;77.57
29825;BME280;16713;52.916;12.834;2023-07-31T04:44:08;100258.72;;;16.93;77.53
29825;BME280;16713;52.916;12.834;2023-07-31T04:46:37;100270.56;;;16.93;77.60
29825;BME280;16713;52.916;12.834;2023-07-31T04:49:04;100268.19;;;16.92;77.14
29825;BME280;16713;52.916;12.834;2023-07-31T04:51:31;100272.91;;;16.95;77.35
29825;BME280;16713;52.916;12.834;2023-07-31T04:53:57;100265.78;;;16.97;77.89
29825;BME280;16713;52.916;12.834;2023-07-31T04:56:24;100264.59;;;16.98;77.73
29825;BME280;16713;52.916;12.834;2023-07-31T04:58:50;100268.16;;;16.99;77.78
29825;BME280;16713;52.916;12.834;2023-07-31T05:01:16;100258.63;;;17.00;78.24
29825;BME280;16713;52.916;12.834;2023-07-31T05:03:43;100254.69;;;17.01;78.06
29825;BME280;16713;52.916;12.834;2023-07-31T05:06:10;100265.72;;;17.04;78.01
29825;BME280;16713;52.916;12.834;2023-07-31T05:08:36;100257.81;;;17.03;78.17
29825;BME280;16713;52.916;12.834;2023-07-31T05:11:03;100252.31;;;16.99;77.33
29825;BME280;16713;52.916;12.834;2023-07-31T05:13:29;100251.09;;;17.04;77.58
29825;BME280;16713;52.916;12.834;2023-07-31T05:15:56;100255.03;;;17.03;78.08
29825;BME280;16713;52.916;12.834;2023-07-31T05:18:24;100249.56;;;16.99;77.61
29825;BME280;16713;52.916;12.834;2023-07-31T05:20:51;100257.03;;;17.02;77.94
29825;BME280;16713;52.916;12.834;2023-07-31T05:23:17;100260.16;;;17.04;77.99
29825;BME280;16713;52.916;12.834;2023-07-31T05:25:44;100264.13;;;17.07;78.70
29825;BME280;16713;52.916;12.834;2023-07-31T05:28:12;100260.94;;;17.08;78.55
29825;BME280;16713;52.916;12.834;2023-07-31T05:30:39;100255.44;;;17.05;78.47
29825;BME280;16713;52.916;12.834;2023-07-31T05:33:05;100254.59;;;17.08;78.10
29825;BME280;16713;52.916;12.834;2023-07-31T05:35:32;100259.00;;;17.05;78.15
29825;BME280;16713;52.916;12.834;2023-07-31T05:37:58;100255.44;;;17.05;78.58
29825;BME280;16713;52.916;12.834;2023-07-31T05:40:25;100257.78;;;17.06;77.99
29825;BME280;16713;52.916;12.834;2023-07-31T05:42:51;100253.03;;;17.07;78.18
29825;BME280;16713;52.916;12.834;2023-07-31T05:45:17;100255.84;;;17.03;78.45
29825;BME280;16713;52.916;12.834;2023-07-31T05:47:44;100255.84;;;17.03;78.00
29825;BME280;16713;52.916;12.834;2023-07-31T05:50:10;100252.66;;;17.05;78.03
29825;BME280;16713;52.916;12.834;2023-07-31T05:52:37;100250.69;;;17.05;78.46
29825;BME280;16713;52.916;12.834;2023-07-31T05:55:04;100249.91;;;17.01;78.71
29825;BME280;16713;52.916;12.834;2023-07-31T05:57:30;100244.72;;;17.07;78.75
29825;BME280;16713;52.916;12.834;2023-07-31T05:59:57;100253.00;;;17.10;78.14
29825;BME280;16713;52.916;12.834;2023-07-31T06:02:23;100247.09;;;17.08;78.83
29825;BME280;16713;52.916;12.834;2023-07-31T06:04:50;100249.88;;;17.05;78.73
29825;BME280;16713;52.916;12.834;2023-07-31T06:07:17;100247.53;;;17.03;78.39
29825;BME280;16713;52.916;12.834;2023-07-31T06:09:43;100248.31;;;17.04;77.90
29825;BME280;16713;52.916;12.834;2023-07-31T06:12:09;100239.59;;;17.05;77.99
29825;BME280;16713;52.916;12.834;2023-07-31T06:14:36;100244.34;;;17.05;78.20
29825;BME280;16713;52.916;12.834;2023-07-31T06:17:03;100236.78;;;17.09;78.51
29825;BME280;16713;52.916;12.834;2023-07-31T06:19:29;100237.22;;;17.07;78.43
29825;BME280;16713;52.916;12.834;2023-07-31T06:21:55;100226.47;;;17.09;78.51
29825;BME280;16713;52.916;12.834;2023-07-31T06:24:22;100231.25;;;17.09;78.39
29825;BME280;16713;52.916;12.834;2023-07-31T06:26:49;100240.72;;;17.11;78.96
29825;BME280;16713;52.916;12.834;2023-07-31T06:29:17;100239.91;;;17.11;79.00
29825;BME280;16713;52.916;12.834;2023-07-31T06:31:43;100228.06;;;17.10;78.97
29825;BME280;16713;52.916;12.834;2023-07-31T06:34:10;100233.19;;;17.12;79.22
29825;BME280;16713;52.916;12.834;2023-07-31T06:36:36;100230.78;;;17.14;78.62
29825;BME280;16713;52.916;12.834;2023-07-31T06:39:03;100236.75;;;17.12;78.77
29825;BME280;16713;52.916;12.834;2023-07-31T06:41:30;100229.63;;;17.11;78.24
29825;BME280;16713;52.916;12.834;2023-07-31T06:43:56;100230.03;;;17.17;78.32
29825;BME280;16713;52.916;12.834;2023-07-31T06:46:23;100230.78;;;17.14;78.48
29825;BME280;16713;52.916;12.834;2023-07-31T06:48:49;100229.59;;;17.18;78.89
29825;BME280;16713;52.916;12.834;2023-07-31T06:51:16;100228.41;;;17.19;80.09
29825;BME280;16713;52.916;12.834;2023-07-31T06:53:42;100221.19;;;17.25;79.40
29825;BME280;16713;52.916;12.834;2023-07-31T06:56:11;100223.94;;;17.29;79.85
29825;BME280;16713;52.916;12.834;2023-07-31T06:58:38;100218.03;;;17.27;79.69
29825;BME280;16713;52.916;12.834;2023-07-31T07:01:04;100221.13;;;17.32;80.02
29825;BME280;16713;52.916;12.834;2023-07-31T07:03:31;100224.72;;;17.33;79.87
29825;BME280;16713;52.916;12.834;2023-07-31T07:05:57;100222.63;;;17.40;80.05
29825;BME280;16713;52.916;12.834;2023-07-31T07:08:25;100228.97;;;17.41;80.17
29825;BME280;16713;52.916;12.834;2023-07-31T07:10:53;100213.06;;;17.45;80.67
29825;BME280;16713;52.916;12.834;2023-07-31T07:13:21;100220.53;;;17.52;80.43
29825;BME280;16713;52.916;12.834;2023-07-31T07:15:48;100216.94;;;17.55;80.83
29825;BME280;16713;52.916;12.834;2023-07-31T07:18:16;100213.34;;;17.54;80.45
29825;BME280;16713;52.916;12.834;2023-07-31T07:20:53;100220.47;;;17.59;80.26
29825;BME280;16713;52.916;12.834;2023-07-31T07:23:20;100214.94;;;17.55;80.69
29825;BME280;16713;52.916;12.834;2023-07-31T07:25:47;100220.47;;;17.59;80.38
29825;BME280;16713;52.916;12.834;2023-07-31T07:28:14;100221.22;;;17.59;80.55
29825;BME280;16713;52.916;12.834;2023-07-31T07:30:40;100220.78;;;17.64;80.48
29825;BME280;16713;52.916;12.834;2023-07-31T07:33:07;100205.66;;;17.69;81.07
29825;BME280;16713;52.916;12.834;2023-07-31T07:35:34;100208.81;;;17.71;79.72
29825;BME280;16713;52.916;12.834;2023-07-31T07:38:02;100206.00;;;17.74;80.49
29825;BME280;16713;52.916;12.834;2023-07-31T07:40:29;100208.72;;;17.78;80.63
29825;BME280;16713;52.916;12.834;2023-07-31T07:42:55;100201.56;;;17.80;79.78
29825;BME280;16713;52.916;12.834;2023-07-31T07:45:21;100204.03;;;17.75;80.04
29825;BME280;16713;52.916;12.834;2023-07-31T07:47:48;100196.44;;;17.79;79.07
29825;BME280;16713;52.916;12.834;2023-07-31T07:50:14;100200.38;;;17.81;79.64
29825;BME280;16713;52.916;12.834;2023-07-31T07:52:41;100200.78;;;17.80;79.45
29825;BME280;16713;52.916;12.834;2023-07-31T07:55:08;100198.69;;;17.87;79.48
29825;BME280;16713;52.916;12.834;2023-07-31T07:57:34;100196.22;;;17.93;79.73
29825;BME280;16713;52.916;12.834;2023-07-31T08:00:01;100198.31;;;17.85;79.43
29825;BME280;16713;52.916;12.834;2023-07-31T08:02:27;100193.44;;;17.96;78.54
29825;BME280;16713;52.916;12.834;2023-07-31T08:04:54;100190.66;;;17.96;78.80
29825;BME280;16713;52.916;12.834;2023-07-31T08:07:20;100189.50;;;17.94;78.30
29825;BME280;16713;52.916;12.834;2023-07-31T08:09:47;100192.19;;;18.01;79.11
29825;BME280;16713;52.916;12.834;2023-07-31T08:12:13;100183.44;;;18.02;79.09
29825;BME280;16713;52.916;12.834;2023-07-31T08:14:40;100183.81;;;18.04;78.88
29825;BME280;16713;52.916;12.834;2023-07-31T08:17:06;100180.19;;;18.07;78.20
29825;BME280;16713;52.916;12.834;2023-07-31T08:19:33;100168.63;;;18.12;78.80
29825;BME280;16713;52.916;12.834;2023-07-31T08:21:59;100172.16;;;18.16;79.30
29825;BME280;16713;52.916;12.834;2023-07-31T08:24:26;100171.41;;;18.12;78.00
29825;BME280;16713;52.916;12.834;2023-07-31T08:26:52;100174.81;;;18.23;77.77
29825;BME280;16713;52.916;12.834;2023-07-31T08:29:19;100173.97;;;18.26;78.27
29825;BME280;16713;52.916;12.834;2023-07-31T08:31:45;100169.59;;;18.29;78.46
29825;BME280;16713;52.916;12.834;2023-07-31T08:34:12;100173.97;;;18.26;78.11
29825;BME280;16713;52.916;12.834;2023-07-31T08:36:38;100166.34;;;18.34;76.93
29825;BME280;16713;52.916;12.834;2023-07-31T08:39:05;100166.84;;;18.25;75.96
29825;BME280;16713;52.916;12.834;2023-07-31T08:41:37;100168.41;;;18.26;76.16
29825;BME280;16713;52.916;12.834;2023-07-31T08:44:06;100175.44;;;18.34;77.13
29825;BME280;16713;52.916;12.834;2023-07-31T08:46:33;100169.06;;;18.37;75.81
29825;BME280;16713;52.916;12.834;2023-07-31T08:49:04;100168.75;;;18.32;76.25
29825;BME280;16713;52.916;12.834;2023-07-31T08:51:34;100177.41;;;18.37;76.92
29825;BME280;16713;52.916;12.834;2023-07-31T08:54:00;100169.78;;;18.41;77.04
29825;BME280;16713;52.916;12.834;2023-07-31T08:56:27;100176.19;;;18.38;77.18
29825;BME280;16713;52.916;12.834;2023-07-31T08:58:54;100171.00;;;18.40;77.00
29825;BME280;16713;52.916;12.834;2023-07-31T09:01:21;100172.19;;;18.39;76.77
29825;BME280;16713;52.916;12.834;2023-07-31T09:03:49;100174.50;;;18.44;76.94
29825;BME280;16713;52.916;12.834;2023-07-31T09:06:18;100174.50;;;18.44;75.73
29825;BME280;16713;52.916;12.834;2023-07-31T09:08:46;100167.38;;;18.43;75.90
29825;BME280;16713;52.916;12.834;2023-07-31T09:11:13;100167.38;;;18.43;76.33
29825;BME280;16713;52.916;12.834;2023-07-31T09:13:41;100171.09;;;18.33;75.99
29825;BME280;16713;52.916;12.834;2023-07-31T09:16:08;100169.78;;;18.41;75.97
29825;BME280;16713;52.916;12.834;2023-07-31T09:18:53;100168.88;;;18.48;76.19
29825;BME280;16713;52.916;12.834;2023-07-31T09:21:19;100161.41;;;18.45;75.41
29825;BME280;16713;52.916;12.834;2023-07-31T09:23:47;100164.06;;;18.52;75.63
29825;BME280;16713;52.916;12.834;2023-07-31T09:26:30;100168.84;;;18.51;76.33
29825;BME280;16713;52.916;12.834;2023-07-31T09:28:58;100166.53;;;18.46;75.37
29825;BME280;16713;52.916;12.834;2023-07-31T09:31:38;100164.06;;;18.52;76.19
29825;BME280;16713;52.916;12.834;2023-07-31T09:34:05;100174.34;;;18.55;76.70
29825;BME280;16713;52.916;12.834;2023-07-31T09:36:32;100178.91;;;18.42;76.57
29825;BME280;16713;52.916;12.834;2023-07-31T09:39:02;100168.69;;;18.35;75.86
29825;BME280;16713;52.916;12.834;2023-07-31T09:41:36;100169.59;;;18.29;76.06
29825;BME280;16713;52.916;12.834;2023-07-31T09:44:04;100171.16;;;18.30;77.14
29825;BME280;16713;52.916;12.834;2023-07-31T09:46:30;100179.53;;;18.26;77.68
29825;BME280;16713;52.916;12.834;2023-07-31T09:49:10;100171.28;;;18.23;78.19
29825;BME280;16713;52.916;12.834;2023-07-31T09:51:41;100170.16;;;18.17;78.61
29825;BME280;16713;52.916;12.834;2023-07-31T09:54:12;100169.38;;;18.16;78.84
29825;BME280;16713;52.916;12.834;2023-07-31T09:56:42;100169.72;;;18.18;78.25
29825;BME280;16713;52.916;12.834;2023-07-31T09:59:14;100158.38;;;18.09;79.19
29825;BME280;16713;52.916;12.834;2023-07-31T10:01:42;100153.63;;;18.10;78.73
29825;BME280;16713;52.916;12.834;2023-07-31T10:04:10;100148.09;;;18.06;79.31
29825;BME280;16713;52.916;12.834;2023-07-31T10:06:38;100146.56;;;18.05;79.43
29825;BME280;16713;52.916;12.834;2023-07-31T10:09:07;100143.81;;;18.02;79.68
29825;BME280;16713;52.916;12.834;2023-07-31T10:11:50;100137.00;;;18.06;78.88
29825;BME280;16713;52.916;12.834;2023-07-31T10:14:20;100134.66;;;18.05;80.17
29825;BME280;16713;52.916;12.834;2023-07-31T10:16:47;100135.44;;;18.05;80.32
29825;BME280;16713;52.916;12.834;2023-07-31T10:19:14;100132.31;;;18.03;80.55
29825;BME280;16713;52.916;12.834;2023-07-31T10:21:42;100132.31;;;18.03;79.78
29825;BME280;16713;52.916;12.834;2023-07-31T10:24:08;100134.59;;;18.08;80.49
29825;BME280;16713;52.916;12.834;2023-07-31T10:26:37;100126.69;;;18.07;80.40
29825;BME280;16713;52.916;12.834;2023-07-31T10:29:06;100123.13;;;18.06;79.96
29825;BME280;16713;52.916;12.834;2023-07-31T10:31:33;100121.56;;;18.05;80.20
29825;BME280;16713;52.916;12.834;2023-07-31T10:34:01;100122.28;;;18.09;80.62
29825;BME280;16713;52.916;12.834;2023-07-31T10:36:29;100123.22;;;17.99;81.20
29825;BME280;16713;52.916;12.834;2023-07-31T10:38:56;100114.06;;;18.02;81.33
29825;BME280;16713;52.916;12.834;2023-07-31T10:41:31;100104.63;;;17.96;81.51
29825;BME280;16713;52.916;12.834;2023-07-31T10:43:59;100108.59;;;17.95;81.74
29825;BME280;16713;52.916;12.834;2023-07-31T10:46:29;100107.75;;;18.02;81.16
29825;BME280;16713;52.916;12.834;2023-07-31T10:49:01;100101.78;;;18.03;80.97
29825;BME280;16713;52.916;12.834;2023-07-31T10:51:35;100095.06;;;18.01;82.27
29825;BME280;16713;52.916;12.834;2023-07-31T10:54:15;100093.41;;;18.07;81.53
29825;BME280;16713;52.916;12.834;2023-07-31T10:56:45;100082.72;;;18.05;82.13
29825;BME280;16713;52.916;12.834;2023-07-31T10:59:12;100085.72;;;18.14;81.90
29825;BME280;16713;52.916;12.834;2023-07-31T11:01:54;100071.75;;;18.21;82.54
29825;BME280;16713;52.916;12.834;2023-07-31T11:04:26;100064.94;;;18.26;83.08
29825;BME280;16713;52.916;12.834;2023-07-31T11:06:58;100069.91;;;18.34;83.93
29825;BME280;16713;52.916;12.834;2023-07-31T11:09:29;100066.66;;;18.16;83.23
29825;BME280;16713;52.916;12.834;2023-07-31T11:11:56;100069.69;;;18.25;82.27
29825;BME280;16713;52.916;12.834;2023-07-31T11:14:23;100077.47;;;18.34;81.74
29825;BME280;16713;52.916;12.834;2023-07-31T11:16:50;100069.09;;;18.37;81.25
29825;BME280;16713;52.916;12.834;2023-07-31T11:19:24;100068.09;;;18.47;82.03
29825;BME280;16713;52.916;12.834;2023-07-31T11:21:52;100065.69;;;18.49;82.07
29825;BME280;16713;52.916;12.834;2023-07-31T11:24:19;100062.56;;;18.47;81.33
29825;BME280;16713;52.916;12.834;2023-07-31T11:26:53;100052.44;;;18.57;81.13
29825;BME280;16713;52.916;12.834;2023-07-31T11:29:20;100059.72;;;18.51;81.60
29825;BME280;16713;52.916;12.834;2023-07-31T11:31:47;100055.13;;;18.64;80.21
29825;BME280;16713;52.916;12.834;2023-07-31T11:34:15;100055.00;;;18.71;80.07
29825;BME280;16713;52.916;12.834;2023-07-31T11:36:53;100054.59;;;18.72;80.56
29825;BME280;16713;52.916;12.834;2023-07-31T11:39:19;100054.44;;;18.79;79.82
29825;BME280;16713;52.916;12.834;2023-07-31T11:41:46;100061.94;;;18.82;79.09
29825;BME280;16713;52.916;12.834;2023-07-31T11:44:12;100058.13;;;18.73;80.10
29825;BME280;16713;52.916;12.834;2023-07-31T11:46:52;100060.31;;;18.85;79.01
29825;BME280;16713;52.916;12.834;2023-07-31T11:49:19;100053.94;;;18.84;79.58
29825;BME280;16713;52.916;12.834;2023-07-31T11:51:45;100059.75;;;18.94;79.40
29825;BME280;16713;52.916;12.834;2023-07-31T11:54:12;100048.69;;;18.90;78.05
29825;BME280;16713;52.916;12.834;2023-07-31T11:56:40;100053.81;;;18.92;77.68
29825;BME280;16713;52.916;12.834;2023-07-31T11:59:07;100050.63;;;18.93;77.95
29825;BME280;16713;52.916;12.834;2023-07-31T12:01:35;100047.72;;;19.00;78.57
29825;BME280;16713;52.916;12.834;2023-07-31T12:04:02;100061.94;;;19.02;78.73
29825;BME280;16713;52.916;12.834;2023-07-31T12:06:33;100051.63;;;19.03;77.78
29825;BME280;16713;52.916;12.834;2023-07-31T12:09:04;100050.75;;;19.06;76.60
29825;BME280;16713;52.916;12.834;2023-07-31T12:11:31;100046.75;;;19.07;77.31
29825;BME280;16713;52.916;12.834;2023-07-31T12:13:58;100050.31;;;18.88;76.20
29825;BME280;16713;52.916;12.834;2023-07-31T12:16:26;100044.72;;;18.68;75.68
29825;BME280;16713;52.916;12.834;2023-07-31T12:18:53;100051.75;;;18.76;75.21
29825;BME280;16713;52.916;12.834;2023-07-31T12:21:19;100053.34;;;18.97;74.70
29825;BME280;16713;52.916;12.834;2023-07-31T12:23:46;100065.28;;;18.74;75.06
29825;BME280;16713;52.916;12.834;2023-07-31T12:26:14;100061.84;;;18.86;75.07
29825;BME280;16713;52.916;12.834;2023-07-31T12:28:45;100068.00;;;18.97;75.13
29825;BME280;16713;52.916;12.834;2023-07-31T12:31:16;100074.06;;;18.92;75.10
29825;BME280;16713;52.916;12.834;2023-07-31T12:33:44;100065.16;;;19.01;76.02
29825;BME280;16713;52.916;12.834;2023-07-31T12:36:12;100063.78;;;18.89;76.79
29825;BME280;16713;52.916;12.834;2023-07-31T12:38:40;100068.09;;;18.94;76.17
29825;BME280;16713;52.916;12.834;2023-07-31T12:41:06;100063.22;;;18.98;76.10
29825;BME280;16713;52.916;12.834;2023-07-31T12:43:37;100062.38;;;19.01;76.64
29825;BME280;16713;52.916;12.834;2023-07-31T12:46:04;100052.25;;;18.91;77.21
29825;BME280;16713;52.916;12.834;2023-07-31T12:48:31;100055.69;;;18.98;76.76
29825;BME280;16713;52.916;12.834;2023-07-31T12:50:58;100052.09;;;18.98;76.61
29825;BME280;16713;52.916;12.834;2023-07-31T12:53:24;100046.78;;;18.87;77.46